sensor_id;sensor_type;location;lat;lon;timestamp;temperature;humidity
20242;DHT22;10279;46.388;8.116;2022-07-29T02:15:06;18.40;99.90
20242;DHT22;10279;46.388;8.116;2022-07-29T02:17:45;18.40;99.90
20242;DHT22;10279;46.388;8.116;2022-07-29T02:20:13;18.30;99.90
20242;DHT22;10279;46.388;8.116;2022-07-29T02:22:41;18.20;99.90
20242;DHT22;10279;46.388;8.116;2022-07-29T02:25:10;18.20;99.90
20242;DHT22;10279;46.388;8.116;2022-07-29T02:27:41;18.20;99.90
20242;DHT22;10279;46.388;8.116;2022-07-29T02:30:09;18.10;99.90
20242;DHT22;10279;46.388;8.116;2022-07-29T02:32:40;18.20;99.90
20242;DHT22;10279;46.388;8.116;2022-07-29T02:35:09;18.20;99.90
20242;DHT22;10279;46.388;8.116;2022-07-29T02:37:37;18.10;99.90
20242;DHT22;10279;46.388;8.116;2022-07-29T02:40:09;18.20;99.90
20242;DHT22;10279;46.388;8.116;2022-07-29T02:42:42;18.30;99.90
20242;DHT22;10279;46.388;8.116;2022-07-29T02:45:10;18.40;99.90
20242;DHT22;10279;46.388;8.116;2022-07-29T02:47:44;18.50;99.90
20242;DHT22;10279;46.388;8.116;2022-07-29T02:50:20;18.50;99.90
20242;DHT22;10279;46.388;8.116;2022-07-29T02:53:14;18.40;99.90
20242;DHT22;10279;46.388;8.116;2022-07-29T02:55:51;18.40;99.90
20242;DHT22;10279;46.388;8.116;2022-07-29T02:58:27;18.40;99.90
20242;DHT22;10279;46.388;8.116;2022-07-29T03:00:58;18.50;99.90
20242;DHT22;10279;46.388;8.116;2022-07-29T03:03:29;18.40;99.90
20242;DHT22;10279;46.388;8.116;2022-07-29T03:06:00;18.30;99.90
20242;DHT22;10279;46.388;8.116;2022-07-29T03:08:27;18.40;99.90
20242;DHT22;10279;46.388;8.116;2022-07-29T03:10:55;18.40;99.90
20242;DHT22;10279;46.388;8.116;2022-07-29T03:13:22;18.50;99.90
20242;DHT22;10279;46.388;8.116;2022-07-29T03:15:50;18.50;99.90
20242;DHT22;10279;46.388;8.116;2022-07-29T03:18:18;18.50;99.90
20242;DHT22;10279;46.388;8.116;2022-07-29T03:20:45;18.50;99.90
20242;DHT22;10279;46.388;8.116;2022-07-29T03:23:21;18.40;99.90
20242;DHT22;10279;46.388;8.116;2022-07-29T03:25:50;18.50;99.90
20242;DHT22;10279;46.388;8.116;2022-07-29T03:28:18;18.40;99.90
20242;DHT22;10279;46.388;8.116;2022-07-29T03:30:47;18.40;99.90
20242;DHT22;10279;46.388;8.116;2022-07-29T03:33:15;18.40;99.90
20242;DHT22;10279;46.388;8.116;2022-07-29T03:35:42;18.40;99.90
20242;DHT22;10279;46.388;8.116;2022-07-29T03:38:09;18.30;99.90
20242;DHT22;10279;46.388;8.116;2022-07-29T03:41:00;18.30;99.90
20242;DHT22;10279;46.388;8.116;2022-07-29T03:43:32;18.30;99.90
20242;DHT22;10279;46.388;8.116;2022-07-29T03:46:01;18.40;99.90
20242;DHT22;10279;46.388;8.116;2022-07-29T03:48:31;18.40;99.90
20242;DHT22;10279;46.388;8.116;2022-07-29T03:50:59;18.50;99.90
20242;DHT22;10279;46.388;8.116;2022-07-29T03:53:26;18.50;99.90
20242;DHT22;10279;46.388;8.116;2022-07-29T03:55:57;18.50;99.90
20242;DHT22;10279;46.388;8.116;2022-07-29T03:58:27;18.40;99.90
20242;DHT22;10279;46.388;8.116;2022-07-29T04:00:55;18.30;99.90
20242;DHT22;10279;46.388;8.116;2022-07-29T04:03:22;18.30;99.90
20242;DHT22;10279;46.388;8.116;2022-07-29T04:06:02;18.30;99.90
20242;DHT22;10279;46.388;8.116;2022-07-29T04:08:30;18.30;99.90
20242;DHT22;10279;46.388;8.116;2022-07-29T04:10:57;18.30;99.90
20242;DHT22;10279;46.388;8.116;2022-07-29T04:13:24;18.30;99.90
20242;DHT22;10279;46.388;8.116;2022-07-29T04:15:51;18.30;99.90
20242;DHT22;10279;46.388;8.116;2022-07-29T04:18:19;18.20;99.90
20242;DHT22;10279;46.388;8.116;2022-07-29T04:20:46;18.20;99.90
20242;DHT22;10279;46.388;8.116;2022-07-29T04:23:13;18.30;99.90
20242;DHT22;10279;46.388;8.116;2022-07-29T04:25:40;18.30;99.90
20242;DHT22;10279;46.388;8.116;2022-07-29T04:28:08;18.30;99.90
20242;DHT22;10279;46.388;8.116;2022-07-29T04:30:37;18.30;99.90
20242;DHT22;10279;46.388;8.116;2022-07-29T04:33:07;18.10;99.90
20242;DHT22;10279;46.388;8.116;2022-07-29T04:35:36;18.20;99.90
20242;DHT22;10279;46.388;8.116;2022-07-29T04:38:16;18.20;99.90
20242;DHT22;10279;46.388;8.116;2022-07-29T04:40:43;18.20;99.90
20242;DHT22;10279;46.388;8.116;2022-07-29T04:43:10;18.20;99.90
20242;DHT22;10279;46.388;8.116;2022-07-29T04:45:39;18.20;99.90
20242;DHT22;10279;46.388;8.116;2022-07-29T04:48:07;18.20;99.90
20242;DHT22;10279;46.388;8.116;2022-07-29T04:50:34;18.20;99.90
20242;DHT22;10279;46.388;8.116;2022-07-29T04:53:01;18.20;99.90
20242;DHT22;10279;46.388;8.116;2022-07-29T04:55:28;18.30;99.90
20242;DHT22;10279;46.388;8.116;2022-07-29T04:57:54;18.30;99.90
20242;DHT22;10279;46.388;8.116;2022-07-29T05:00:22;18.40;99.90
20242;DHT22;10279;46.388;8.116;2022-07-29T05:02:59;18.40;99.90
20242;DHT22;10279;46.388;8.116;2022-07-29T05:05:26;18.40;99.90
20242;DHT22;10279;46.388;8.116;2022-07-29T05:07:53;18.50;99.90
20242;DHT22;10279;46.388;8.116;2022-07-29T05:10:21;18.50;99.90
20242;DHT22;10279;46.388;8.116;2022-07-29T05:12:48;18.50;99.90
20242;DHT22;10279;46.388;8.116;2022-07-29T05:15:15;18.30;99.90
20242;DHT22;10279;46.388;8.116;2022-07-29T05:17:44;18.30;99.90
20242;DHT22;10279;46.388;8.116;2022-07-29T05:20:11;18.30;99.90
20242;DHT22;10279;46.388;8.116;2022-07-29T05:22:38;18.20;99.90
20242;DHT22;10279;46.388;8.116;2022-07-29T05:25:05;18.30;99.90
20242;DHT22;10279;46.388;8.116;2022-07-29T05:27:35;18.40;99.90
20242;DHT22;10279;46.388;8.116;2022-07-29T05:30:04;18.50;99.90
20242;DHT22;10279;46.388;8.116;2022-07-29T05:32:31;18.50;99.90
20242;DHT22;10279;46.388;8.116;2022-07-29T05:34:58;18.60;99.90
20242;DHT22;10279;46.388;8.116;2022-07-29T05:37:25;18.70;99.90
20242;DHT22;10279;46.388;8.116;2022-07-29T05:39:52;18.80;99.90
20242;DHT22;10279;46.388;8.116;2022-07-29T05:42:24;18.80;99.90
20242;DHT22;10279;46.388;8.116;2022-07-29T05:44:52;18.80;99.90
20242;DHT22;10279;46.388;8.116;2022-07-29T05:47:19;18.80;99.90
20242;DHT22;10279;46.388;8.116;2022-07-29T05:49:46;18.80;99.90
20242;DHT22;10279;46.388;8.116;2022-07-29T05:52:13;18.70;99.90
20242;DHT22;10279;46.388;8.116;2022-07-29T05:54:41;18.70;99.90
20242;DHT22;10279;46.388;8.116;2022-07-29T05:57:08;18.70;99.90
20242;DHT22;10279;46.388;8.116;2022-07-29T05:59:36;18.70;99.90
20242;DHT22;10279;46.388;8.116;2022-07-29T06:02:04;18.70;99.90
20242;DHT22;10279;46.388;8.116;2022-07-29T06:04:32;18.70;99.90
20242;DHT22;10279;46.388;8.116;2022-07-29T06:07:00;18.70;99.90
20242;DHT22;10279;46.388;8.116;2022-07-29T06:09:28;18.70;99.90
20242;DHT22;10279;46.388;8.116;2022-07-29T06:11:56;18.80;99.90
20242;DHT22;10279;46.388;8.116;2022-07-29T06:14:25;18.80;99.90
20242;DHT22;10279;46.388;8.116;2022-07-29T06:16:53;18.90;99.90
20242;DHT22;10279;46.388;8.116;2022-07-29T06:19:20;18.90;99.90
20242;DHT22;10279;46.388;8.116;2022-07-29T06:21:47;19.00;99.90
20242;DHT22;10279;46.388;8.116;2022-07-29T06:24:15;19.00;99.90
20242;DHT22;10279;46.388;8.116;2022-07-29T06:26:43;19.00;99.90
20242;DHT22;10279;46.388;8.116;2022-07-29T06:29:12;19.10;99.90
20242;DHT22;10279;46.388;8.116;2022-07-29T06:31:39;19.10;99.90
20242;DHT22;10279;46.388;8.116;2022-07-29T06:34:07;19.20;99.90
20242;DHT22;10279;46.388;8.116;2022-07-29T06:36:35;19.20;99.90
20242;DHT22;10279;46.388;8.116;2022-07-29T06:39:05;19.20;99.90
20242;DHT22;10279;46.388;8.116;2022-07-29T06:41:33;19.20;99.90
20242;DHT22;10279;46.388;8.116;2022-07-29T06:44:01;19.30;99.90
20242;DHT22;10279;46.388;8.116;2022-07-29T06:46:28;19.20;99.90
20242;DHT22;10279;46.388;8.116;2022-07-29T06:48:55;19.20;99.90
20242;DHT22;10279;46.388;8.116;2022-07-29T06:51:23;19.20;99.90
20242;DHT22;10279;46.388;8.116;2022-07-29T06:53:53;19.30;99.90
20242;DHT22;10279;46.388;8.116;2022-07-29T06:56:29;19.50;99.90
20242;DHT22;10279;46.388;8.116;2022-07-29T06:58:57;19.70;99.90
20242;DHT22;10279;46.388;8.116;2022-07-29T07:01:24;19.90;99.90
20242;DHT22;10279;46.388;8.116;2022-07-29T07:03:52;19.90;99.90
20242;DHT22;10279;46.388;8.116;2022-07-29T07:06:19;20.00;99.90
20242;DHT22;10279;46.388;8.116;2022-07-29T07:08:46;20.00;99.90
20242;DHT22;10279;46.388;8.116;2022-07-29T07:11:13;20.00;99.90
20242;DHT22;10279;46.388;8.116;2022-07-29T07:13:40;20.00;99.90
20242;DHT22;10279;46.388;8.116;2022-07-29T07:16:07;20.00;99.90
20242;DHT22;10279;46.388;8.116;2022-07-29T07:18:34;20.00;99.90
20242;DHT22;10279;46.388;8.116;2022-07-29T07:21:01;20.10;99.90
20242;DHT22;10279;46.388;8.116;2022-07-29T07:23:29;20.10;99.90
20242;DHT22;10279;46.388;8.116;2022-07-29T07:25:56;20.10;99.90
20242;DHT22;10279;46.388;8.116;2022-07-29T07:28:23;20.10;99.90
20242;DHT22;10279;46.388;8.116;2022-07-29T07:30:51;20.10;99.90
20242;DHT22;10279;46.388;8.116;2022-07-29T07:33:19;20.10;99.90
20242;DHT22;10279;46.388;8.116;2022-07-29T07:35:46;20.10;99.90
20242;DHT22;10279;46.388;8.116;2022-07-29T07:38:13;20.20;99.90
20242;DHT22;10279;46.388;8.116;2022-07-29T07:40:40;20.20;99.90
20242;DHT22;10279;46.388;8.116;2022-07-29T07:43:08;20.30;99.90
20242;DHT22;10279;46.388;8.116;2022-07-29T07:45:35;20.40;99.90
20242;DHT22;10279;46.388;8.116;2022-07-29T07:48:04;20.50;99.90
20242;DHT22;10279;46.388;8.116;2022-07-29T07:50:32;20.60;99.90
20242;DHT22;10279;46.388;8.116;2022-07-29T07:52:59;20.80;99.90
20242;DHT22;10279;46.388;8.116;2022-07-29T07:55:28;20.90;99.90
20242;DHT22;10279;46.388;8.116;2022-07-29T07:58:15;20.90;99.90
20242;DHT22;10279;46.388;8.116;2022-07-29T08:00:43;21.00;99.90
20242;DHT22;10279;46.388;8.116;2022-07-29T08:03:10;21.00;99.90
20242;DHT22;10279;46.388;8.116;2022-07-29T08:05:43;21.10;99.90
20242;DHT22;10279;46.388;8.116;2022-07-29T08:08:10;21.10;99.90
20242;DHT22;10279;46.388;8.116;2022-07-29T08:10:37;21.30;99.90
20242;DHT22;10279;46.388;8.116;2022-07-29T08:13:21;21.40;99.90
20242;DHT22;10279;46.388;8.116;2022-07-29T08:15:49;21.60;99.90
20242;DHT22;10279;46.388;8.116;2022-07-29T08:18:28;21.80;99.90
20242;DHT22;10279;46.388;8.116;2022-07-29T08:20:56;21.90;99.90
20242;DHT22;10279;46.388;8.116;2022-07-29T08:23:23;22.10;99.90
20242;DHT22;10279;46.388;8.116;2022-07-29T08:25:51;22.20;99.90
20242;DHT22;10279;46.388;8.116;2022-07-29T09:30:56;24.10;99.90
20242;DHT22;10279;46.388;8.116;2022-07-29T09:33:25;24.20;99.90
20242;DHT22;10279;46.388;8.116;2022-07-29T09:36:07;24.20;99.90
20242;DHT22;10279;46.388;8.116;2022-07-29T09:38:35;24.30;99.90
20242;DHT22;10279;46.388;8.116;2022-07-29T09:41:04;24.40;99.90
20242;DHT22;10279;46.388;8.116;2022-07-29T09:43:33;24.30;99.90
20242;DHT22;10279;46.388;8.116;2022-07-29T09:46:11;24.20;99.90
20242;DHT22;10279;46.388;8.116;2022-07-29T09:48:38;24.10;99.90
20242;DHT22;10279;46.388;8.116;2022-07-29T11:27:15;19.60;99.90
20242;DHT22;10279;46.388;8.116;2022-07-29T11:29:59;19.40;99.90
20242;DHT22;10279;46.388;8.116;2022-07-29T11:32:39;19.20;99.90
20242;DHT22;10279;46.388;8.116;2022-07-29T11:35:20;19.00;99.90
20242;DHT22;10279;46.388;8.116;2022-07-29T11:46:47;18.70;99.90
20242;DHT22;10279;46.388;8.116;2022-07-29T11:49:20;18.50;99.90
20242;DHT22;10279;46.388;8.116;2022-07-29T11:51:59;18.30;99.90
20242;DHT22;10279;46.388;8.116;2022-07-29T11:54:34;18.30;99.90
20242;DHT22;10279;46.388;8.116;2022-07-29T11:57:22;18.50;99.90
20242;DHT22;10279;46.388;8.116;2022-07-29T12:00:06;18.70;99.90
20242;DHT22;10279;46.388;8.116;2022-07-29T12:02:40;18.90;99.90
20242;DHT22;10279;46.388;8.116;2022-07-29T12:05:10;19.20;99.90
20242;DHT22;10279;46.388;8.116;2022-07-29T12:07:40;21.20;99.90
20242;DHT22;10279;46.388;8.116;2022-07-29T12:10:13;19.20;99.90
20242;DHT22;10279;46.388;8.116;2022-07-29T12:12:51;19.30;99.90
20242;DHT22;10279;46.388;8.116;2022-07-29T12:15:19;19.30;99.90
20242;DHT22;10279;46.388;8.116;2022-07-29T12:17:48;19.40;99.90
20242;DHT22;10279;46.388;8.116;2022-07-29T12:20:26;19.50;99.90
20242;DHT22;10279;46.388;8.116;2022-07-29T12:22:58;19.40;99.90
20242;DHT22;10279;46.388;8.116;2022-07-29T12:25:33;19.20;99.90
20242;DHT22;10279;46.388;8.116;2022-07-29T12:28:04;19.10;99.90
20242;DHT22;10279;46.388;8.116;2022-07-29T12:30:47;19.10;99.90
20242;DHT22;10279;46.388;8.116;2022-07-29T12:33:25;19.10;99.90
20242;DHT22;10279;46.388;8.116;2022-07-29T12:35:58;19.10;99.90
20242;DHT22;10279;46.388;8.116;2022-07-29T12:38:43;19.30;99.90
20242;DHT22;10279;46.388;8.116;2022-07-29T12:41:10;19.50;99.90
20242;DHT22;10279;46.388;8.116;2022-07-29T12:43:54;19.60;99.90
20242;DHT22;10279;46.388;8.116;2022-07-29T12:46:21;19.80;99.90
20242;DHT22;10279;46.388;8.116;2022-07-29T12:48:53;19.90;99.90
20242;DHT22;10279;46.388;8.116;2022-07-29T12:51:39;19.80;99.90
20242;DHT22;10279;46.388;8.116;2022-07-29T12:54:09;19.70;99.90
20242;DHT22;10279;46.388;8.116;2022-07-29T12:56:41;19.70;99.90
20242;DHT22;10279;46.388;8.116;2022-07-29T13:01:44;19.80;99.90
20242;DHT22;10279;46.388;8.116;2022-07-29T13:04:11;19.90;99.90
20242;DHT22;10279;46.388;8.116;2022-07-29T13:07:06;20.10;99.90
20242;DHT22;10279;46.388;8.116;2022-07-29T13:09:41;20.20;99.90
20242;DHT22;10279;46.388;8.116;2022-07-29T13:12:11;20.40;99.90
20242;DHT22;10279;46.388;8.116;2022-07-29T13:14:49;20.60;99.90
20242;DHT22;10279;46.388;8.116;2022-07-29T13:17:21;20.70;99.90
20242;DHT22;10279;46.388;8.116;2022-07-29T13:20:07;20.90;99.90
20242;DHT22;10279;46.388;8.116;2022-07-29T13:22:39;21.00;99.90
20242;DHT22;10279;46.388;8.116;2022-07-29T13:25:07;21.10;99.90
20242;DHT22;10279;46.388;8.116;2022-07-29T13:27:37;21.20;99.90
20242;DHT22;10279;46.388;8.116;2022-07-29T13:30:06;21.30;99.90
20242;DHT22;10279;46.388;8.116;2022-07-29T13:32:34;21.40;99.90
20242;DHT22;10279;46.388;8.116;2022-07-29T13:35:05;21.30;99.90
